Algiers, Indiana
Current Conditions -  °F | °C
As of 10:35 AM on Thursday 30 Oct 2014 (Local Time) from KDCY Reporting Station
Clear Clear  
Wind Chill: 48°   Ceiling: Unl
Heat Index: 48°   Visibility: 10mi
Dew Point: 35°   Wind: 3mph
Humidity: 62%   Direction: 150°SSE
Pressure: 30.17"   Gusts: NA
Location:  38.4723°N, 87.3105°W
Report Text: KDCY 301535Z AUTO 15003KT 10SM CLR 09/02 A3017 RMK AO2 T00880018
Loading
Personal Weather Stations






























Interactive Weather Map New forecast layout! Learn more

10-Day Weather Forecast

Advertisements
Track Severe Weather on mobile